createdAt,value
2022-10-20T00:01:57.688Z,102092.97
2022-10-20T00:04:24.407Z,102095.56
2022-10-20T00:06:51.096Z,102092.94
2022-10-20T00:09:17.657Z,102093.75
2022-10-20T00:11:46.041Z,102086.75
2022-10-20T00:14:13.103Z,102082.31
2022-10-20T00:16:40.915Z,102083.19
2022-10-20T00:19:11.867Z,102077.94
2022-10-20T00:21:40.515Z,102072.63
2022-10-20T00:24:07.147Z,102081.38
2022-10-20T00:26:33.988Z,102085.69
2022-10-20T00:29:02.566Z,102088.28
2022-10-20T00:31:29.524Z,102089.13
2022-10-20T00:33:56.204Z,102097.88
2022-10-20T00:36:25.779Z,102095.16
2022-10-20T00:38:59.284Z,102100.38
2022-10-20T00:41:29.743Z,102088.09
2022-10-20T00:44:02.032Z,102086.28
2022-10-20T00:46:40.747Z,102085.38
2022-10-20T00:49:22.079Z,102086.25
2022-10-20T00:51:49.922Z,102089.75
2022-10-20T00:54:19.499Z,102088.88
2022-10-20T00:56:50.006Z,102085.34
2022-10-20T00:59:21.849Z,102096.75
2022-10-20T01:01:51.840Z,102094.13
2022-10-20T01:04:19.074Z,102094.09
2022-10-20T01:06:45.649Z,102094.09
2022-10-20T01:09:12.546Z,102099.34
2022-10-20T01:11:52.877Z,102094.03
2022-10-20T01:14:29.403Z,102105.41
2022-10-20T01:17:02.080Z,102090.47
2022-10-20T01:19:31.283Z,102096.59
2022-10-20T01:22:20.627Z,102097.41
2022-10-20T01:25:05.522Z,102091.28
2022-10-20T01:27:36.563Z,102087.78
2022-10-20T01:30:17.824Z,102088.66
2022-10-20T01:32:55.311Z,102097.38
2022-10-20T01:35:25.560Z,102088.63
2022-10-20T01:38:04.757Z,102087.69
2022-10-20T01:40:46.438Z,102089.44
2022-10-20T01:43:16.765Z,102083.25
2022-10-20T01:45:48.305Z,102082.31
2022-10-20T01:48:19.989Z,102084.94
2022-10-20T01:51:03.853Z,102075.28
2022-10-20T01:53:30.955Z,102078.78
2022-10-20T01:56:00.010Z,102079.59
2022-10-20T01:58:29.477Z,102083.06
2022-10-20T02:01:20.632Z,102078.69
2022-10-20T02:04:03.254Z,102077.75
2022-10-20T02:06:54.242Z,102076.84
2022-10-20T02:09:39.356Z,102081.19
2022-10-20T02:12:21.553Z,102081.16
2022-10-20T02:14:48.770Z,102072.38
2022-10-20T02:17:18.743Z,102070.53
2022-10-20T02:19:48.466Z,102075.78
2022-10-20T02:22:16.347Z,102072.28
2022-10-20T02:24:45.110Z,102074.94
2022-10-20T02:27:27.516Z,102072.31
2022-10-20T02:30:01.563Z,102071.44
2022-10-20T02:32:30.490Z,102068.84
2022-10-20T02:34:57.090Z,102077.56
2022-10-20T02:37:23.829Z,102069.72
2022-10-20T02:39:50.466Z,102073.16
2022-10-20T02:42:17.428Z,102067.88
2022-10-20T02:44:44.074Z,102069.56
2022-10-20T02:47:10.815Z,102068.72
2022-10-20T02:49:40.250Z,102069.56
2022-10-20T02:52:06.826Z,102073.00
2022-10-20T02:54:33.975Z,102073.81
2022-10-20T02:57:00.601Z,102079.94
2022-10-20T02:59:27.223Z,102067.72
2022-10-20T03:01:53.990Z,102069.47
2022-10-20T03:04:20.784Z,102067.72
2022-10-20T03:06:47.548Z,102066.00
2022-10-20T03:09:14.293Z,102059.94
2022-10-20T03:11:40.926Z,102070.47
2022-10-20T03:14:07.547Z,102069.66
2022-10-20T03:16:34.425Z,102063.53
2022-10-20T03:19:03.998Z,102068.00
2022-10-20T03:21:34.183Z,102064.50
2022-10-20T03:24:01.182Z,102061.94
2022-10-20T03:26:27.799Z,102065.44
2022-10-20T03:28:54.404Z,102068.94
2022-10-20T03:31:21.353Z,102058.44
2022-10-20T03:33:47.949Z,102066.31
2022-10-20T03:36:14.525Z,102065.44
2022-10-20T03:38:45.623Z,102066.31
2022-10-20T03:41:12.283Z,102071.56
2022-10-20T03:43:39.991Z,102070.66
2022-10-20T03:46:11.674Z,102078.53
2022-10-20T03:48:39.706Z,102074.09
2022-10-20T03:51:09.267Z,102080.19
2022-10-20T03:53:35.955Z,102085.38
2022-10-20T03:56:10.514Z,102086.22
2022-10-20T03:58:37.105Z,102098.41
2022-10-20T04:01:06.481Z,102094.84
2022-10-20T04:03:33.239Z,102094.81
2022-10-20T04:05:59.859Z,102103.59
2022-10-20T04:08:26.537Z,102089.63
2022-10-20T04:10:53.385Z,102091.47
2022-10-20T04:13:23.095Z,102092.34
2022-10-20T04:15:49.627Z,102093.22
2022-10-20T04:18:16.403Z,102090.63
2022-10-20T04:20:44.522Z,102095.84
2022-10-20T04:23:11.736Z,102090.59
2022-10-20T04:25:45.654Z,102074.81
2022-10-20T04:28:13.405Z,102088.78
2022-10-20T04:30:40.238Z,102076.50
2022-10-20T04:33:07.031Z,102087.81
2022-10-20T04:35:33.773Z,102088.53
2022-10-20T04:38:00.633Z,102085.84
2022-10-20T04:40:27.328Z,102084.88
2022-10-20T04:42:53.909Z,102083.94
2022-10-20T04:45:20.511Z,102084.81
2022-10-20T04:47:47.081Z,102078.66
2022-10-20T04:50:16.743Z,102075.16
2022-10-20T04:52:43.346Z,102078.59
2022-10-20T04:55:10.007Z,102076.84
2022-10-20T04:57:36.944Z,102084.66
2022-10-20T05:00:06.287Z,102068.94
2022-10-20T05:02:32.887Z,102068.00
2022-10-20T05:04:59.608Z,102075.84
2022-10-20T05:07:29.058Z,102081.97
2022-10-20T05:09:55.616Z,102093.31
2022-10-20T05:12:24.143Z,102089.78
2022-10-20T05:14:50.728Z,102081.94
2022-10-20T05:17:17.293Z,102081.06
2022-10-20T05:19:47.151Z,102080.22
2022-10-20T05:22:13.800Z,102088.09
2022-10-20T05:24:43.411Z,102085.53
2022-10-20T05:27:10.760Z,102090.78
2022-10-20T05:29:37.413Z,102094.34
2022-10-20T05:32:04.083Z,102100.50
2022-10-20T05:34:33.502Z,102090.94
2022-10-20T05:37:00.077Z,102094.44
2022-10-20T05:39:26.836Z,102098.78
2022-10-20T05:41:53.512Z,102096.06
2022-10-20T05:44:20.134Z,102096.88
2022-10-20T05:46:46.767Z,102097.69
2022-10-20T05:49:15.846Z,102092.41
2022-10-20T05:51:47.033Z,102102.88
2022-10-20T05:54:16.951Z,102104.56
2022-10-20T05:56:44.005Z,102097.59
2022-10-20T05:59:11.790Z,102094.97
2022-10-20T06:01:48.395Z,102093.16
2022-10-20T06:04:17.867Z,102085.31
2022-10-20T06:06:44.877Z,102094.09
2022-10-20T06:09:12.231Z,102081.00
2022-10-20T06:11:39.884Z,102087.06
2022-10-20T06:14:08.248Z,102087.84
2022-10-20T06:16:35.223Z,102100.84
2022-10-20T06:19:03.163Z,102099.16
2022-10-20T06:21:32.201Z,102100.91
2022-10-20T06:24:04.788Z,102100.03
2022-10-20T06:26:33.235Z,102101.84
2022-10-20T06:29:04.272Z,102101.78
2022-10-20T06:31:34.157Z,102100.03
2022-10-20T06:34:01.573Z,102106.19
2022-10-20T06:36:31.627Z,102116.69
2022-10-20T06:39:02.095Z,102113.19
2022-10-20T06:41:28.769Z,102104.53
2022-10-20T06:43:59.076Z,102105.41
2022-10-20T06:46:31.026Z,102107.19
2022-10-20T06:49:03.871Z,102105.44
2022-10-20T06:51:31.055Z,102108.13
2022-10-20T06:53:59.411Z,102112.50
2022-10-20T06:56:29.089Z,102114.34
2022-10-20T06:58:57.302Z,102108.28
2022-10-20T07:01:27.991Z,102113.59
2022-10-20T07:03:58.840Z,102114.59
2022-10-20T07:06:34.455Z,102114.66
2022-10-20T07:09:04.167Z,102122.63
2022-10-20T07:11:32.153Z,102124.41
2022-10-20T07:14:02.349Z,102124.47
2022-10-20T07:16:31.791Z,102120.16
2022-10-20T07:18:59.717Z,102130.69
2022-10-20T07:21:35.662Z,102124.63
2022-10-20T07:24:06.696Z,102125.63
2022-10-20T07:26:36.548Z,102131.84
2022-10-20T07:29:04.347Z,102123.13
2022-10-20T07:31:38.253Z,102119.78
2022-10-20T07:34:14.065Z,102127.75
2022-10-20T07:36:51.398Z,102127.88
2022-10-20T07:39:18.040Z,102130.63
2022-10-20T07:41:47.361Z,102129.84
2022-10-20T07:44:14.427Z,102139.56
2022-10-20T07:46:41.107Z,102133.50
2022-10-20T07:51:54.303Z,102138.00
2022-10-20T07:54:21.015Z,102141.59
2022-10-20T07:56:47.852Z,102144.31
2022-10-20T07:59:14.526Z,102147.00
2022-10-20T08:01:43.452Z,102136.59
2022-10-20T08:04:10.114Z,102132.28
2022-10-20T08:06:39.366Z,102135.84
2022-10-20T08:09:07.408Z,102133.25
2022-10-20T08:11:36.813Z,102136.00
2022-10-20T08:14:06.249Z,102125.50
2022-10-20T08:16:32.935Z,102133.47
2022-10-20T08:19:10.837Z,102122.09
2022-10-20T08:21:37.527Z,102132.72
2022-10-20T08:24:04.308Z,102131.91
2022-10-20T08:26:33.266Z,102126.69
2022-10-20T08:28:59.918Z,102131.16
2022-10-20T08:31:28.866Z,102130.31
2022-10-20T08:33:56.969Z,102144.44
2022-10-20T08:36:24.711Z,102137.44
2022-10-20T08:38:51.391Z,102134.00
2022-10-20T08:41:21.913Z,102123.50
2022-10-20T08:43:54.715Z,102122.69
2022-10-20T08:46:25.102Z,102119.25
2022-10-20T08:48:52.889Z,102123.66
2022-10-20T08:51:22.630Z,102118.41
2022-10-20T08:53:51.943Z,102122.84
2022-10-20T08:56:22.941Z,102121.09
2022-10-20T08:58:49.685Z,102127.28
2022-10-20T09:01:30.969Z,102122.94
2022-10-20T09:04:19.332Z,102111.59
2022-10-20T09:06:51.273Z,102098.44
2022-10-20T09:09:20.747Z,102113.41
2022-10-20T09:11:48.151Z,102110.81
2022-10-20T09:14:16.772Z,102109.06
2022-10-20T09:16:59.639Z,102114.34
2022-10-20T09:19:28.215Z,102112.63
2022-10-20T09:22:02.772Z,102104.69
2022-10-20T09:24:30.769Z,102109.09
2022-10-20T09:27:16.000Z,102107.34
2022-10-20T09:29:42.727Z,102101.22
2022-10-20T09:32:45.503Z,102106.47
2022-10-20T09:35:21.913Z,102104.72
2022-10-20T09:37:55.516Z,102098.53
2022-10-20T09:40:23.197Z,102100.28
2022-10-20T09:42:54.194Z,102099.38
2022-10-20T09:45:28.872Z,102104.66
2022-10-20T09:48:21.203Z,102098.47
2022-10-20T09:50:53.401Z,102095.81
2022-10-20T09:53:23.813Z,102094.91
2022-10-20T09:55:54.166Z,102092.25
2022-10-20T09:58:30.254Z,102100.16
2022-10-20T10:01:17.880Z,102091.31
2022-10-20T10:03:46.907Z,102089.56
2022-10-20T10:06:34.441Z,102086.91
2022-10-20T10:09:02.470Z,102087.78
2022-10-20T10:11:36.555Z,102086.00
2022-10-20T10:14:06.805Z,102082.44
2022-10-20T10:16:42.299Z,102085.06
2022-10-20T10:19:18.059Z,102084.13
2022-10-20T10:21:55.010Z,102080.59
2022-10-20T10:24:42.318Z,102076.16
2022-10-20T10:27:27.935Z,102078.78
2022-10-20T10:30:19.794Z,102077.91
2022-10-20T10:32:47.982Z,102083.16
2022-10-20T10:35:36.226Z,102091.06
2022-10-20T10:38:03.383Z,102096.34
2022-10-20T10:40:33.078Z,102089.25
2022-10-20T10:43:22.194Z,102091.00
2022-10-20T10:45:56.840Z,102086.59
2022-10-20T10:49:00.956Z,102084.84
2022-10-20T10:52:24.994Z,102077.78
2022-10-20T10:55:47.822Z,102076.00
2022-10-20T10:58:40.594Z,102086.59
2022-10-20T11:01:19.129Z,102081.31
2022-10-20T11:04:22.762Z,102071.56
2022-10-20T11:07:06.827Z,102068.91
2022-10-20T11:09:36.355Z,102067.16
2022-10-20T11:12:15.023Z,102067.13
2022-10-20T11:15:06.274Z,102067.97
2022-10-20T11:17:56.514Z,102065.38
2022-10-20T11:20:52.951Z,102059.16
2022-10-20T11:23:37.507Z,102057.38
2022-10-20T11:26:25.414Z,102060.06
2022-10-20T11:28:57.882Z,102059.19
2022-10-20T11:31:39.848Z,102060.94
2022-10-20T11:34:23.856Z,102066.25
2022-10-20T11:37:17.086Z,102060.03
2022-10-20T11:39:59.533Z,102058.28
2022-10-20T11:42:51.102Z,102051.19
2022-10-20T11:45:38.732Z,102055.56
2022-10-20T11:48:22.910Z,102042.34
2022-10-20T11:51:10.981Z,102045.84
2022-10-20T11:54:18.456Z,102038.84
2022-10-20T11:56:54.073Z,102044.16
2022-10-20T11:59:48.078Z,102045.94
2022-10-20T12:02:52.410Z,102052.97
2022-10-20T12:05:52.415Z,102048.56
2022-10-20T12:08:34.145Z,102051.22
2022-10-20T12:11:09.694Z,102052.06
2022-10-20T12:13:55.433Z,102044.13
2022-10-20T12:16:53.231Z,102045.03
2022-10-20T12:19:26.989Z,102040.63
2022-10-20T12:21:58.615Z,102037.09
2022-10-20T12:24:38.612Z,102041.47
2022-10-20T12:27:08.238Z,102033.53
2022-10-20T12:29:34.757Z,102038.84
2022-10-20T12:32:26.002Z,102037.97
2022-10-20T12:35:22.808Z,102032.72
2022-10-20T12:37:58.091Z,102022.13
2022-10-20T12:40:28.267Z,102032.72
2022-10-20T12:42:56.152Z,102016.81
2022-10-20T12:45:33.888Z,102026.53
2022-10-20T12:48:02.911Z,102009.75
2022-10-20T12:50:41.189Z,102011.53
2022-10-20T12:53:19.175Z,102001.81
2022-10-20T12:55:56.075Z,102005.38
2022-10-20T12:58:22.632Z,102008.00
2022-10-20T13:00:52.165Z,102004.47
2022-10-20T13:03:47.884Z,102004.44
2022-10-20T13:06:23.453Z,102001.81
2022-10-20T13:09:21.263Z,101997.41
2022-10-20T13:12:04.520Z,101993.88
2022-10-20T13:14:54.892Z,101989.50
2022-10-20T13:17:41.342Z,101988.59
2022-10-20T13:20:28.272Z,101985.97
2022-10-20T13:22:56.271Z,101993.88
2022-10-20T13:25:34.427Z,101983.34
2022-10-20T13:28:05.633Z,101992.19
2022-10-20T13:30:35.387Z,101993.06
2022-10-20T13:34:02.042Z,101991.31
2022-10-20T13:36:39.644Z,101986.03
2022-10-20T13:39:38.891Z,101993.97
2022-10-20T13:42:26.335Z,101993.97
2022-10-20T13:45:08.210Z,101986.94
2022-10-20T13:47:45.482Z,101986.09
2022-10-20T13:50:22.902Z,101987.84
2022-10-20T13:52:57.822Z,101983.47
2022-10-20T13:55:28.442Z,101981.69
2022-10-20T13:58:06.729Z,101987.84
2022-10-20T14:00:36.181Z,101986.13
2022-10-20T14:03:17.403Z,101991.38
2022-10-20T14:05:43.991Z,101998.41
2022-10-20T14:08:14.122Z,101994.94
2022-10-20T14:10:57.055Z,101983.47
2022-10-20T14:13:28.789Z,101984.34
2022-10-20T14:15:57.763Z,101990.53
2022-10-20T14:18:35.556Z,101987.88
2022-10-20T14:21:08.551Z,101987.88
2022-10-20T14:23:38.431Z,101984.34
2022-10-20T14:26:07.720Z,101980.81
2022-10-20T14:28:36.505Z,101987.03
2022-10-20T14:31:03.526Z,101979.09
2022-10-20T14:33:30.952Z,101983.53
2022-10-20T14:35:59.633Z,101982.66
2022-10-20T14:38:33.307Z,101978.25
2022-10-20T14:41:00.254Z,101977.38
2022-10-20T14:43:26.853Z,101981.81
2022-10-20T14:45:56.521Z,101977.44
2022-10-20T14:48:25.394Z,101980.09
2022-10-20T14:50:54.017Z,101981.91
2022-10-20T14:53:25.245Z,101977.50
2022-10-20T14:55:52.040Z,101975.78
2022-10-20T14:58:39.135Z,101970.50
2022-10-20T15:01:29.108Z,101967.03
2022-10-20T15:04:10.974Z,101960.00
2022-10-20T15:06:37.691Z,101958.25
2022-10-20T15:09:04.454Z,101962.66
2022-10-20T15:11:32.340Z,101956.53
2022-10-20T15:14:00.337Z,101960.09
2022-10-20T15:16:39.960Z,101964.50
2022-10-20T15:19:34.612Z,101966.31
2022-10-20T15:24:44.706Z,101966.34
2022-10-20T15:27:15.935Z,101962.84
2022-10-20T15:29:51.759Z,101954.94
2022-10-20T15:32:18.652Z,101951.44
2022-10-20T15:34:45.364Z,101951.44
2022-10-20T15:37:11.960Z,101947.06
2022-10-20T15:39:38.686Z,101946.22
2022-10-20T15:42:11.105Z,101936.56
2022-10-20T15:44:38.197Z,101938.34
2022-10-20T15:47:04.989Z,101941.00
2022-10-20T15:49:31.734Z,101941.88
2022-10-20T15:51:58.333Z,101938.41
2022-10-20T15:54:25.059Z,101946.34
2022-10-20T15:56:51.683Z,101949.84
2022-10-20T15:59:18.367Z,101953.41
2022-10-20T16:01:45.048Z,101948.13
2022-10-20T16:04:22.382Z,101944.66
2022-10-20T16:06:52.466Z,101960.47
2022-10-20T16:09:23.631Z,101951.69
2022-10-20T16:11:50.349Z,101943.81
2022-10-20T16:14:16.974Z,101942.91
2022-10-20T16:16:47.077Z,101940.31
2022-10-20T16:19:13.874Z,101941.19
2022-10-20T16:21:41.394Z,101932.44
2022-10-20T16:24:08.085Z,101935.06
2022-10-20T16:26:34.696Z,101932.44
2022-10-20T16:29:01.292Z,101932.44
2022-10-20T16:31:29.390Z,101931.56
2022-10-20T16:33:58.920Z,101935.94
2022-10-20T16:36:45.839Z,101915.75
2022-10-20T16:39:13.732Z,101920.13
2022-10-20T16:41:40.348Z,101914.91
2022-10-20T16:44:06.931Z,101913.13
2022-10-20T16:46:33.505Z,101921.91
2022-10-20T16:49:29.755Z,101914.00
2022-10-20T16:52:02.750Z,101911.38
2022-10-20T16:54:29.623Z,101910.47
2022-10-20T16:56:56.371Z,101915.78
2022-10-20T16:59:23.091Z,101921.06
2022-10-20T17:01:49.865Z,101899.97
2022-10-20T17:04:16.493Z,101900.84
2022-10-20T17:06:43.150Z,101905.25
2022-10-20T17:09:09.851Z,101893.81
2022-10-20T17:11:36.560Z,101903.47
2022-10-20T17:14:03.600Z,101907.81
2022-10-20T17:16:33.067Z,101906.94
2022-10-20T17:19:02.135Z,101911.34
2022-10-20T17:21:30.354Z,101913.06
2022-10-20T17:23:57.310Z,101913.03
2022-10-20T17:26:25.713Z,101918.34
2022-10-20T17:28:56.569Z,101926.22
2022-10-20T17:31:23.689Z,101918.28
2022-10-20T17:33:51.537Z,101925.31
2022-10-20T17:36:19.750Z,101919.16
2022-10-20T17:38:46.603Z,101927.91
2022-10-20T17:41:15.461Z,101922.66
2022-10-20T17:43:42.255Z,101921.78
2022-10-20T17:46:12.762Z,101917.38
2022-10-20T17:48:39.453Z,101921.78
2022-10-20T17:51:12.461Z,101920.88
2022-10-20T17:53:41.387Z,101920.84
2022-10-20T17:56:11.557Z,101932.25
2022-10-20T17:58:38.900Z,101924.31
2022-10-20T18:01:13.125Z,101923.44
2022-10-20T18:03:40.950Z,101928.72
2022-10-20T18:06:18.777Z,101925.19
2022-10-20T18:08:46.028Z,101921.66
2022-10-20T18:11:18.062Z,101923.38
2022-10-20T18:13:45.451Z,101918.97
2022-10-20T18:16:17.602Z,101921.56
2022-10-20T18:18:44.803Z,101919.78
2022-10-20T18:21:16.650Z,101917.16
2022-10-20T18:23:45.762Z,101914.50
2022-10-20T18:26:17.430Z,101910.09
2022-10-20T18:28:48.187Z,101918.88
2022-10-20T18:31:22.361Z,101915.38
2022-10-20T18:33:50.985Z,101922.41
2022-10-20T18:36:19.083Z,101918.88
2022-10-20T18:38:46.839Z,101907.44
2022-10-20T18:41:19.513Z,101902.22
2022-10-20T18:43:47.079Z,101903.94
2022-10-20T18:46:14.811Z,101898.69
2022-10-20T18:48:42.397Z,101890.78
2022-10-20T18:51:11.003Z,101896.94
2022-10-20T18:56:07.090Z,101881.09
2022-10-20T18:58:38.359Z,101886.34
2022-10-20T19:01:10.688Z,101872.31
2022-10-20T19:03:38.963Z,101882.75
2022-10-20T19:06:12.253Z,101887.09
2022-10-20T19:08:40.193Z,101887.97
2022-10-20T19:11:09.721Z,101887.09
2022-10-20T19:13:36.343Z,101884.44
2022-10-20T19:16:09.303Z,101893.16
2022-10-20T19:18:36.035Z,101892.28
2022-10-20T19:21:06.173Z,101887.00
2022-10-20T19:23:35.274Z,101890.47
2022-10-20T19:26:15.715Z,101887.84
2022-10-20T19:28:46.482Z,101885.19
2022-10-20T19:31:21.290Z,101884.31
2022-10-20T19:33:51.259Z,101883.41
2022-10-20T19:36:19.345Z,101887.81
2022-10-20T19:38:46.633Z,101891.31
2022-10-20T19:41:13.698Z,101892.19
2022-10-20T19:43:40.406Z,101886.06
2022-10-20T19:46:08.795Z,101893.06
2022-10-20T19:48:35.936Z,101885.16
2022-10-20T19:51:03.633Z,101882.50
2022-10-20T19:53:30.574Z,101885.13
2022-10-20T19:55:57.295Z,101889.44
2022-10-20T19:58:23.983Z,101887.72
2022-10-20T20:00:53.541Z,101875.44
2022-10-20T20:03:22.057Z,101880.69
2022-10-20T20:05:48.754Z,101876.28
2022-10-20T20:08:15.379Z,101885.91
2022-10-20T20:10:50.475Z,101885.00
2022-10-20T20:13:17.047Z,101880.59
2022-10-20T20:15:43.644Z,101877.09
2022-10-20T20:18:12.145Z,101880.59
2022-10-20T20:20:49.033Z,101879.72
2022-10-20T20:23:26.008Z,101881.47
2022-10-20T20:26:03.968Z,101879.75
2022-10-20T20:28:31.388Z,101874.53
2022-10-20T20:31:09.778Z,101865.75
2022-10-20T20:33:36.586Z,101865.78
2022-10-20T20:36:06.432Z,101860.56
2022-10-20T20:38:36.302Z,101861.50
2022-10-20T20:41:07.025Z,101860.63
2022-10-20T20:43:35.187Z,101861.53
2022-10-20T20:46:06.334Z,101864.16
2022-10-20T20:48:34.836Z,101854.53
2022-10-20T20:51:01.487Z,101860.69
2022-10-20T20:53:28.137Z,101863.34
2022-10-20T20:55:57.114Z,101857.25
2022-10-20T20:58:24.575Z,101854.63
2022-10-20T21:00:52.368Z,101863.41
2022-10-20T21:03:19.420Z,101859.94
2022-10-20T21:05:46.048Z,101865.22
2022-10-20T21:08:12.931Z,101861.75
2022-10-20T21:10:39.546Z,101858.25
2022-10-20T21:13:06.186Z,101860.03
2022-10-20T21:15:32.806Z,101852.16
2022-10-20T21:17:59.408Z,101839.94
2022-10-20T21:20:25.990Z,101842.56
2022-10-20T21:22:52.746Z,101841.69
2022-10-20T21:25:19.733Z,101842.59
2022-10-20T21:27:46.339Z,101845.22
2022-10-20T21:30:12.930Z,101830.34
2022-10-20T21:32:39.910Z,101843.50
2022-10-20T21:35:07.049Z,101840.91
2022-10-20T21:37:33.661Z,101830.41
2022-10-20T21:40:00.286Z,101830.38
2022-10-20T21:42:26.910Z,101830.41
2022-10-20T21:44:53.525Z,101835.66
2022-10-20T21:47:20.103Z,101821.66
2022-10-20T21:49:46.739Z,101826.06
2022-10-20T21:52:13.331Z,101825.19
2022-10-20T21:54:39.968Z,101815.53
2022-10-20T21:57:06.559Z,101822.53
2022-10-20T21:59:33.130Z,101818.19
2022-10-20T22:02:01.574Z,101814.66
2022-10-20T22:04:30.383Z,101819.91
2022-10-20T22:06:57.206Z,101832.16
2022-10-20T22:09:24.169Z,101830.41
2022-10-20T22:11:55.211Z,101828.66
2022-10-20T22:14:22.421Z,101824.28
2022-10-20T22:16:49.142Z,101815.50
2022-10-20T22:19:19.605Z,101817.28
2022-10-20T22:21:47.817Z,101825.19
2022-10-20T22:24:15.283Z,101839.22
2022-10-20T22:26:42.504Z,101829.53
2022-10-20T22:29:10.025Z,101829.53
2022-10-20T22:31:38.675Z,101829.53
2022-10-20T22:34:06.360Z,101828.63
2022-10-20T22:36:33.205Z,101831.31
2022-10-20T22:38:59.946Z,101840.97
2022-10-20T22:41:26.668Z,101837.47
2022-10-20T22:43:53.324Z,101840.13
2022-10-20T22:46:20.072Z,101837.50
2022-10-20T22:48:46.773Z,101829.63
2022-10-20T22:51:14.207Z,101835.78
2022-10-20T22:53:41.369Z,101834.91
2022-10-20T22:56:11.148Z,101834.91
2022-10-20T22:58:46.806Z,101831.41
2022-10-20T23:01:20.281Z,101826.16
2022-10-20T23:03:47.623Z,101819.13
2022-10-20T23:06:17.621Z,101822.66
2022-10-20T23:08:49.033Z,101818.25
2022-10-20T23:11:16.501Z,101814.75
2022-10-20T23:13:45.953Z,101817.38
2022-10-20T23:16:16.242Z,101806.00
2022-10-20T23:18:43.112Z,101815.63
2022-10-20T23:21:10.056Z,101815.63
2022-10-20T23:23:39.443Z,101806.88
2022-10-20T23:26:07.527Z,101795.44
2022-10-20T23:28:36.574Z,101786.69
2022-10-20T23:31:08.382Z,101773.53
2022-10-20T23:33:35.557Z,101777.91
2022-10-20T23:36:02.290Z,101779.66
2022-10-20T23:38:29.214Z,101774.41
2022-10-20T23:41:01.695Z,101771.75
2022-10-20T23:43:32.980Z,101760.38
2022-10-20T23:46:00.139Z,101766.50
2022-10-20T23:48:27.433Z,101761.22
2022-10-20T23:50:54.125Z,101755.09
2022-10-20T23:53:20.789Z,101752.44
2022-10-20T23:55:47.416Z,101748.03
2022-10-20T23:58:14.097Z,101744.56
